sensor_id;sensor_type;location;lat;lon;timestamp;temperature;humidity
17944;DHT22;9097;47.028;15.444;2024-03-23T01:02:59;29.90;75.50
17944;DHT22;9097;47.028;15.444;2024-03-23T01:06:02;10.30;99.90
17944;DHT22;9097;47.028;15.444;2024-03-23T01:09:06;10.00;99.90
17944;DHT22;9097;47.028;15.444;2024-03-23T01:12:09;10.00;99.90
17944;DHT22;9097;47.028;15.444;2024-03-23T01:15:12;9.90;99.90
17944;DHT22;9097;47.028;15.444;2024-03-23T01:18:13;9.80;99.90
17944;DHT22;9097;47.028;15.444;2024-03-23T01:21:16;9.80;99.90
17944;DHT22;9097;47.028;15.444;2024-03-23T01:24:19;9.80;99.90
17944;DHT22;9097;47.028;15.444;2024-03-23T01:27:22;9.90;99.90
17944;DHT22;9097;47.028;15.444;2024-03-23T01:30:24;9.80;99.90
17944;DHT22;9097;47.028;15.444;2024-03-23T01:33:26;9.70;99.90
17944;DHT22;9097;47.028;15.444;2024-03-23T01:36:27;9.70;99.90
17944;DHT22;9097;47.028;15.444;2024-03-23T01:39:31;9.80;99.90
17944;DHT22;9097;47.028;15.444;2024-03-23T01:42:33;9.70;99.90
17944;DHT22;9097;47.028;15.444;2024-03-23T01:48:38;9.60;99.90
17944;DHT22;9097;47.028;15.444;2024-03-23T01:51:39;9.50;99.90
17944;DHT22;9097;47.028;15.444;2024-03-23T01:54:44;9.40;99.90
17944;DHT22;9097;47.028;15.444;2024-03-23T01:57:45;9.40;99.90
17944;DHT22;9097;47.028;15.444;2024-03-23T02:00:47;9.30;99.90
17944;DHT22;9097;47.028;15.444;2024-03-23T02:03:49;9.20;99.90
17944;DHT22;9097;47.028;15.444;2024-03-23T02:06:52;9.20;99.90
17944;DHT22;9097;47.028;15.444;2024-03-23T02:09:55;9.20;99.90
17944;DHT22;9097;47.028;15.444;2024-03-23T02:12:57;9.20;99.90
17944;DHT22;9097;47.028;15.444;2024-03-23T02:15:59;9.20;99.90
17944;DHT22;9097;47.028;15.444;2024-03-23T02:19:01;9.10;99.90
17944;DHT22;9097;47.028;15.444;2024-03-23T02:22:03;9.00;99.90
17944;DHT22;9097;47.028;15.444;2024-03-23T02:25:07;9.00;99.90
17944;DHT22;9097;47.028;15.444;2024-03-23T02:28:09;8.90;99.90
17944;DHT22;9097;47.028;15.444;2024-03-23T02:31:11;9.00;99.90
17944;DHT22;9097;47.028;15.444;2024-03-23T02:34:13;9.00;99.90
17944;DHT22;9097;47.028;15.444;2024-03-23T02:37:14;9.00;99.90
17944;DHT22;9097;47.028;15.444;2024-03-23T02:40:19;9.00;99.90
17944;DHT22;9097;47.028;15.444;2024-03-23T02:43:21;8.90;99.90
17944;DHT22;9097;47.028;15.444;2024-03-23T02:46:23;8.90;99.90
17944;DHT22;9097;47.028;15.444;2024-03-23T02:49:26;8.80;99.90
17944;DHT22;9097;47.028;15.444;2024-03-23T02:52:28;8.80;99.90
17944;DHT22;9097;47.028;15.444;2024-03-23T02:55:31;8.80;99.90
17944;DHT22;9097;47.028;15.444;2024-03-23T02:58:34;8.70;99.90
17944;DHT22;9097;47.028;15.444;2024-03-23T03:01:36;8.80;99.90
17944;DHT22;9097;47.028;15.444;2024-03-23T03:04:38;8.70;99.90
17944;DHT22;9097;47.028;15.444;2024-03-23T03:07:40;8.70;99.90
17944;DHT22;9097;47.028;15.444;2024-03-23T03:13:45;8.60;99.90
17944;DHT22;9097;47.028;15.444;2024-03-23T03:16:47;8.50;99.90
17944;DHT22;9097;47.028;15.444;2024-03-23T03:19:48;8.50;99.90
17944;DHT22;9097;47.028;15.444;2024-03-23T03:22:54;8.50;99.90
17944;DHT22;9097;47.028;15.444;2024-03-23T03:25:58;8.40;99.90
17944;DHT22;9097;47.028;15.444;2024-03-23T03:29:00;8.40;99.90
17944;DHT22;9097;47.028;15.444;2024-03-23T03:32:03;8.30;99.90
17944;DHT22;9097;47.028;15.444;2024-03-23T03:35:04;8.20;99.90
17944;DHT22;9097;47.028;15.444;2024-03-23T03:38:07;8.20;99.90
17944;DHT22;9097;47.028;15.444;2024-03-23T03:41:09;8.30;99.90
17944;DHT22;9097;47.028;15.444;2024-03-23T03:44:12;8.30;99.90
17944;DHT22;9097;47.028;15.444;2024-03-23T03:47:13;8.30;99.90
17944;DHT22;9097;47.028;15.444;2024-03-23T03:50:15;8.30;99.90
17944;DHT22;9097;47.028;15.444;2024-03-23T03:53:17;8.10;99.90
17944;DHT22;9097;47.028;15.444;2024-03-23T03:56:20;8.10;99.90
17944;DHT22;9097;47.028;15.444;2024-03-23T03:59:23;8.10;99.90
17944;DHT22;9097;47.028;15.444;2024-03-23T04:05:26;8.00;99.90
17944;DHT22;9097;47.028;15.444;2024-03-23T04:08:29;8.10;99.90
17944;DHT22;9097;47.028;15.444;2024-03-23T04:11:32;8.10;99.90
17944;DHT22;9097;47.028;15.444;2024-03-23T04:14:34;8.20;99.90
17944;DHT22;9097;47.028;15.444;2024-03-23T04:17:36;8.10;99.90
17944;DHT22;9097;47.028;15.444;2024-03-23T04:20:39;7.90;99.90
17944;DHT22;9097;47.028;15.444;2024-03-23T04:23:40;8.10;99.90
17944;DHT22;9097;47.028;15.444;2024-03-23T04:26:44;8.10;99.90
17944;DHT22;9097;47.028;15.444;2024-03-23T04:29:47;8.20;99.90
17944;DHT22;9097;47.028;15.444;2024-03-23T04:32:50;8.10;99.90
17944;DHT22;9097;47.028;15.444;2024-03-23T04:35:52;8.00;99.90
17944;DHT22;9097;47.028;15.444;2024-03-23T04:38:55;8.00;99.90
17944;DHT22;9097;47.028;15.444;2024-03-23T04:41:59;8.10;99.90
17944;DHT22;9097;47.028;15.444;2024-03-23T04:45:02;8.10;99.90
17944;DHT22;9097;47.028;15.444;2024-03-23T04:48:05;8.30;99.90
17944;DHT22;9097;47.028;15.444;2024-03-23T04:51:08;8.20;99.90
17944;DHT22;9097;47.028;15.444;2024-03-23T04:54:10;8.00;99.90
17944;DHT22;9097;47.028;15.444;2024-03-23T04:57:14;8.00;99.90
17944;DHT22;9097;47.028;15.444;2024-03-23T05:00:18;8.10;99.90
17944;DHT22;9097;47.028;15.444;2024-03-23T05:03:19;8.30;99.90
17944;DHT22;9097;47.028;15.444;2024-03-23T05:06:22;8.00;99.90
17944;DHT22;9097;47.028;15.444;2024-03-23T05:09:24;8.10;99.90
17944;DHT22;9097;47.028;15.444;2024-03-23T05:12:32;8.20;99.90
17944;DHT22;9097;47.028;15.444;2024-03-23T05:15:35;8.30;99.90
17944;DHT22;9097;47.028;15.444;2024-03-23T05:18:36;8.20;99.90
17944;DHT22;9097;47.028;15.444;2024-03-23T05:21:38;8.40;99.90
17944;DHT22;9097;47.028;15.444;2024-03-23T05:24:40;8.40;99.90
17944;DHT22;9097;47.028;15.444;2024-03-23T05:27:43;8.50;99.90
17944;DHT22;9097;47.028;15.444;2024-03-23T05:30:50;8.40;99.90
17944;DHT22;9097;47.028;15.444;2024-03-23T05:33:52;8.50;99.90
17944;DHT22;9097;47.028;15.444;2024-03-23T05:36:55;8.70;99.90
17944;DHT22;9097;47.028;15.444;2024-03-23T05:39:56;8.50;99.90
17944;DHT22;9097;47.028;15.444;2024-03-23T05:43:00;8.70;99.90
17944;DHT22;9097;47.028;15.444;2024-03-23T05:46:02;8.60;99.90
17944;DHT22;9097;47.028;15.444;2024-03-23T05:49:05;8.70;99.90
17944;DHT22;9097;47.028;15.444;2024-03-23T05:52:07;8.70;99.90
17944;DHT22;9097;47.028;15.444;2024-03-23T05:55:09;8.90;99.90
17944;DHT22;9097;47.028;15.444;2024-03-23T05:58:14;8.90;99.90
17944;DHT22;9097;47.028;15.444;2024-03-23T06:01:17;9.00;99.90
17944;DHT22;9097;47.028;15.444;2024-03-23T06:13:27;9.30;99.90
17944;DHT22;9097;47.028;15.444;2024-03-23T06:16:31;9.40;99.90
17944;DHT22;9097;47.028;15.444;2024-03-23T06:19:32;9.50;99.90
17944;DHT22;9097;47.028;15.444;2024-03-23T06:22:34;9.50;99.90
17944;DHT22;9097;47.028;15.444;2024-03-23T06:25:35;9.60;99.90
17944;DHT22;9097;47.028;15.444;2024-03-23T06:37:45;10.20;99.90
17944;DHT22;9097;47.028;15.444;2024-03-23T06:40:48;10.50;99.90
17944;DHT22;9097;47.028;15.444;2024-03-23T06:43:53;10.70;99.90
17944;DHT22;9097;47.028;15.444;2024-03-23T06:49:56;10.50;99.90
17944;DHT22;9097;47.028;15.444;2024-03-23T06:52:59;10.70;99.90
17944;DHT22;9097;47.028;15.444;2024-03-23T06:56:03;10.70;99.90
17944;DHT22;9097;47.028;15.444;2024-03-23T06:59:07;10.70;99.90
17944;DHT22;9097;47.028;15.444;2024-03-23T07:02:09;10.70;99.90
17944;DHT22;9097;47.028;15.444;2024-03-23T07:05:11;10.60;99.90
17944;DHT22;9097;47.028;15.444;2024-03-23T07:08:13;10.60;99.90
17944;DHT22;9097;47.028;15.444;2024-03-23T07:11:19;10.80;99.90
17944;DHT22;9097;47.028;15.444;2024-03-23T07:17:25;10.70;99.90
17944;DHT22;9097;47.028;15.444;2024-03-23T07:20:27;10.70;99.90
17944;DHT22;9097;47.028;15.444;2024-03-23T07:23:31;10.80;99.90
17944;DHT22;9097;47.028;15.444;2024-03-23T07:26:32;11.30;99.90
17944;DHT22;9097;47.028;15.444;2024-03-23T07:44:49;11.20;99.90
17944;DHT22;9097;47.028;15.444;2024-03-23T07:47:51;11.30;99.90
17944;DHT22;9097;47.028;15.444;2024-03-23T07:50:58;11.30;99.90
17944;DHT22;9097;47.028;15.444;2024-03-23T07:53:59;11.30;99.90
17944;DHT22;9097;47.028;15.444;2024-03-23T08:03:09;11.70;99.90
17944;DHT22;9097;47.028;15.444;2024-03-23T08:06:13;11.60;99.90
17944;DHT22;9097;47.028;15.444;2024-03-23T08:09:15;11.70;99.90
17944;DHT22;9097;47.028;15.444;2024-03-23T08:12:17;11.70;99.90
17944;DHT22;9097;47.028;15.444;2024-03-23T08:15:20;11.80;99.90
17944;DHT22;9097;47.028;15.444;2024-03-23T08:18:25;11.80;99.90
17944;DHT22;9097;47.028;15.444;2024-03-23T08:21:28;11.90;99.90
17944;DHT22;9097;47.028;15.444;2024-03-23T08:24:29;12.00;99.90
17944;DHT22;9097;47.028;15.444;2024-03-23T08:27:32;12.00;99.90
17944;DHT22;9097;47.028;15.444;2024-03-23T08:39:43;12.50;99.90
17944;DHT22;9097;47.028;15.444;2024-03-23T08:42:46;12.60;99.90
17944;DHT22;9097;47.028;15.444;2024-03-23T08:58:02;12.70;99.90
17944;DHT22;9097;47.028;15.444;2024-03-23T09:01:07;13.50;99.90
17944;DHT22;9097;47.028;15.444;2024-03-23T09:22:25;15.70;99.90
17944;DHT22;9097;47.028;15.444;2024-03-23T11:09:41;17.50;99.90
17944;DHT22;9097;47.028;15.444;2024-03-23T20:32:29;9.40;99.90
17944;DHT22;9097;47.028;15.444;2024-03-23T20:38:35;9.40;99.90
17944;DHT22;9097;47.028;15.444;2024-03-23T20:41:36;9.20;99.90
17944;DHT22;9097;47.028;15.444;2024-03-23T20:44:44;9.00;99.90
17944;DHT22;9097;47.028;15.444;2024-03-23T20:47:45;8.80;99.90
17944;DHT22;9097;47.028;15.444;2024-03-23T20:50:56;8.70;99.90
17944;DHT22;9097;47.028;15.444;2024-03-23T20:53:57;8.60;99.90
17944;DHT22;9097;47.028;15.444;2024-03-23T20:57:00;8.50;99.90
17944;DHT22;9097;47.028;15.444;2024-03-23T21:00:05;8.50;99.90
17944;DHT22;9097;47.028;15.444;2024-03-23T21:03:09;8.40;99.90
17944;DHT22;9097;47.028;15.444;2024-03-23T21:06:11;8.40;99.90
17944;DHT22;9097;47.028;15.444;2024-03-23T21:09:13;8.40;99.90
17944;DHT22;9097;47.028;15.444;2024-03-23T21:12:16;8.20;99.90
17944;DHT22;9097;47.028;15.444;2024-03-23T21:18:24;8.20;99.90
17944;DHT22;9097;47.028;15.444;2024-03-23T21:21:26;8.00;99.90
17944;DHT22;9097;47.028;15.444;2024-03-23T21:24:29;7.80;99.90
17944;DHT22;9097;47.028;15.444;2024-03-23T22:10:31;7.50;99.90
17944;DHT22;9097;47.028;15.444;2024-03-23T22:13:32;7.60;99.90
17944;DHT22;9097;47.028;15.444;2024-03-23T22:19:38;7.30;99.90
17944;DHT22;9097;47.028;15.444;2024-03-23T22:22:53;7.30;99.90
17944;DHT22;9097;47.028;15.444;2024-03-23T22:25:54;7.40;99.90
17944;DHT22;9097;47.028;15.444;2024-03-23T22:28:59;7.20;99.90
17944;DHT22;9097;47.028;15.444;2024-03-23T22:32:02;7.20;99.90
17944;DHT22;9097;47.028;15.444;2024-03-23T22:35:05;7.10;99.90
17944;DHT22;9097;47.028;15.444;2024-03-23T22:38:07;7.20;99.90
17944;DHT22;9097;47.028;15.444;2024-03-23T22:41:10;7.20;99.90
17944;DHT22;9097;47.028;15.444;2024-03-23T22:44:11;7.20;99.90
17944;DHT22;9097;47.028;15.444;2024-03-23T22:47:17;7.30;99.90
17944;DHT22;9097;47.028;15.444;2024-03-23T22:50:19;7.30;99.90
17944;DHT22;9097;47.028;15.444;2024-03-23T22:53:34;7.30;99.90
17944;DHT22;9097;47.028;15.444;2024-03-23T22:56:40;7.40;99.90
17944;DHT22;9097;47.028;15.444;2024-03-23T22:59:56;7.40;99.90
17944;DHT22;9097;47.028;15.444;2024-03-23T23:03:12;7.10;99.90
17944;DHT22;9097;47.028;15.444;2024-03-23T23:06:16;7.40;99.90
17944;DHT22;9097;47.028;15.444;2024-03-23T23:09:17;7.30;99.90
17944;DHT22;9097;47.028;15.444;2024-03-23T23:12:20;7.30;99.90
17944;DHT22;9097;47.028;15.444;2024-03-23T23:15:21;7.30;99.90
17944;DHT22;9097;47.028;15.444;2024-03-23T23:18:27;7.30;99.90
17944;DHT22;9097;47.028;15.444;2024-03-23T23:21:28;7.30;99.90
17944;DHT22;9097;47.028;15.444;2024-03-23T23:24:42;7.40;99.90
17944;DHT22;9097;47.028;15.444;2024-03-23T23:27:44;7.90;99.90
17944;DHT22;9097;47.028;15.444;2024-03-23T23:30:55;7.30;99.90
17944;DHT22;9097;47.028;15.444;2024-03-23T23:33:59;7.20;99.90
17944;DHT22;9097;47.028;15.444;2024-03-23T23:37:02;7.20;99.90
17944;DHT22;9097;47.028;15.444;2024-03-23T23:40:06;7.10;99.90
17944;DHT22;9097;47.028;15.444;2024-03-23T23:43:09;7.10;99.90
17944;DHT22;9097;47.028;15.444;2024-03-23T23:49:15;7.10;99.90
17944;DHT22;9097;47.028;15.444;2024-03-23T23:55:20;6.30;99.90
17944;DHT22;9097;47.028;15.444;2024-03-23T23:58:23;6.80;99.90
